sensor_id;sensor_type;location;lat;lon;timestamp;pressure;altitude;pressure_sealevel;temperature;humidity
12897;BME280;6516;35.028;32.372;2022-09-28T00:01:13;99929.25;;;20.58;84.86
12897;BME280;6516;35.028;32.372;2022-09-28T00:03:43;99925.06;;;20.54;85.17
12897;BME280;6516;35.028;32.372;2022-09-28T00:06:12;99921.34;;;20.57;84.71
12897;BME280;6516;35.028;32.372;2022-09-28T00:08:44;99919.91;;;20.51;84.69
12897;BME280;6516;35.028;32.372;2022-09-28T00:11:15;99920.88;;;20.50;84.73
12897;BME280;6516;35.028;32.372;2022-09-28T00:13:44;99918.38;;;20.47;84.67
12897;BME280;6516;35.028;32.372;2022-09-28T00:16:20;99913.31;;;20.43;85.17
12897;BME280;6516;35.028;32.372;2022-09-28T00:18:48;99916.16;;;20.40;85.43
12897;BME280;6516;35.028;32.372;2022-09-28T00:21:20;99915.31;;;20.39;85.55
12897;BME280;6516;35.028;32.372;2022-09-28T00:23:51;99915.31;;;20.39;85.74
12897;BME280;6516;35.028;32.372;2022-09-28T00:26:37;99910.66;;;20.43;85.57
12897;BME280;6516;35.028;32.372;2022-09-28T00:29:08;99907.00;;;20.44;85.58
12897;BME280;6516;35.028;32.372;2022-09-28T00:31:41;99912.28;;;20.45;86.01
12897;BME280;6516;35.028;32.372;2022-09-28T00:34:09;99913.03;;;20.47;86.19
12897;BME280;6516;35.028;32.372;2022-09-28T00:36:38;99911.88;;;20.51;86.55
12897;BME280;6516;35.028;32.372;2022-09-28T00:39:11;99912.63;;;20.53;86.59
12897;BME280;6516;35.028;32.372;2022-09-28T00:41:40;99905.28;;;20.57;86.31
12897;BME280;6516;35.028;32.372;2022-09-28T00:44:36;99901.56;;;20.59;85.97
12897;BME280;6516;35.028;32.372;2022-09-28T00:47:26;99905.19;;;20.58;85.97
12897;BME280;6516;35.028;32.372;2022-09-28T00:50:14;99899.06;;;20.56;85.44
12897;BME280;6516;35.028;32.372;2022-09-28T00:52:49;99893.47;;;20.61;85.38
12897;BME280;6516;35.028;32.372;2022-09-28T00:55:24;99898.91;;;20.59;85.67
12897;BME280;6516;35.028;32.372;2022-09-28T00:57:57;99888.47;;;20.55;85.76
12897;BME280;6516;35.028;32.372;2022-09-28T01:00:27;99886.94;;;20.51;85.79
12897;BME280;6516;35.028;32.372;2022-09-28T01:02:55;99896.09;;;20.47;86.31
12897;BME280;6516;35.028;32.372;2022-09-28T01:05:23;99886.94;;;20.51;86.41
12897;BME280;6516;35.028;32.372;2022-09-28T01:07:54;99886.28;;;20.47;85.76
12897;BME280;6516;35.028;32.372;2022-09-28T01:10:23;99890.97;;;20.44;84.62
12897;BME280;6516;35.028;32.372;2022-09-28T01:12:51;99880.75;;;20.36;84.67
12897;BME280;6516;35.028;32.372;2022-09-28T01:15:19;99881.00;;;20.32;85.13
12897;BME280;6516;35.028;32.372;2022-09-28T01:17:59;99875.56;;;20.33;85.62
12897;BME280;6516;35.028;32.372;2022-09-28T01:20:38;99877.00;;;20.25;85.32
12897;BME280;6516;35.028;32.372;2022-09-28T01:23:56;99872.50;;;20.11;85.51
12897;BME280;6516;35.028;32.372;2022-09-28T01:26:52;99867.66;;;19.88;86.06
12897;BME280;6516;35.028;32.372;2022-09-28T01:29:32;99861.22;;;19.77;86.91
12897;BME280;6516;35.028;32.372;2022-09-28T01:32:12;99866.06;;;19.70;86.89
12897;BME280;6516;35.028;32.372;2022-09-28T01:34:49;99866.34;;;19.66;87.71
12897;BME280;6516;35.028;32.372;2022-09-28T01:37:22;99869.69;;;19.69;88.35
12897;BME280;6516;35.028;32.372;2022-09-28T01:39:55;99873.13;;;19.71;88.96
12897;BME280;6516;35.028;32.372;2022-09-28T01:42:27;99867.44;;;19.77;89.47
12897;BME280;6516;35.028;32.372;2022-09-28T01:45:02;99862.75;;;19.81;89.55
12897;BME280;6516;35.028;32.372;2022-09-28T01:47:36;99863.25;;;19.87;90.00
12897;BME280;6516;35.028;32.372;2022-09-28T01:50:08;99858.59;;;19.91;89.53
12897;BME280;6516;35.028;32.372;2022-09-28T01:52:44;99861.16;;;19.92;90.13
12897;BME280;6516;35.028;32.372;2022-09-28T01:55:19;99856.69;;;19.93;89.89
12897;BME280;6516;35.028;32.372;2022-09-28T01:57:56;99854.03;;;19.93;89.74
12897;BME280;6516;35.028;32.372;2022-09-28T02:00:28;99860.03;;;19.96;89.56
12897;BME280;6516;35.028;32.372;2022-09-28T02:02:59;99855.66;;;19.95;88.93
12897;BME280;6516;35.028;32.372;2022-09-28T02:05:36;99858.19;;;19.97;89.29
12897;BME280;6516;35.028;32.372;2022-09-28T02:08:08;99856.50;;;19.96;89.19
12897;BME280;6516;35.028;32.372;2022-09-28T02:10:41;99857.44;;;19.95;89.18
12897;BME280;6516;35.028;32.372;2022-09-28T02:13:15;99854.69;;;19.96;89.45
12897;BME280;6516;35.028;32.372;2022-09-28T02:15:50;99864.72;;;19.93;88.85
12897;BME280;6516;35.028;32.372;2022-09-28T02:18:21;99859.25;;;19.94;89.54
12897;BME280;6516;35.028;32.372;2022-09-28T02:20:51;99862.97;;;19.92;88.88
12897;BME280;6516;35.028;32.372;2022-09-28T02:23:26;99857.34;;;19.82;87.34
12897;BME280;6516;35.028;32.372;2022-09-28T02:26:00;99862.09;;;19.77;88.00
12897;BME280;6516;35.028;32.372;2022-09-28T02:28:31;99859.78;;;19.71;88.69
12897;BME280;6516;35.028;32.372;2022-09-28T02:30:59;99858.47;;;19.78;89.88
12897;BME280;6516;35.028;32.372;2022-09-28T02:33:31;99849.66;;;19.76;89.75
12897;BME280;6516;35.028;32.372;2022-09-28T02:36:01;99850.63;;;19.75;90.23
12897;BME280;6516;35.028;32.372;2022-09-28T02:38:30;99846.16;;;19.76;90.52
12897;BME280;6516;35.028;32.372;2022-09-28T02:41:02;99847.00;;;19.76;90.10
12897;BME280;6516;35.028;32.372;2022-09-28T02:43:43;99855.13;;;19.75;90.12
12897;BME280;6516;35.028;32.372;2022-09-28T02:46:28;99848.91;;;19.74;89.98
12897;BME280;6516;35.028;32.372;2022-09-28T02:49:12;99849.66;;;19.76;90.86
12897;BME280;6516;35.028;32.372;2022-09-28T02:51:50;99853.97;;;19.78;91.04
12897;BME280;6516;35.028;32.372;2022-09-28T02:54:49;99852.75;;;19.84;90.83
12897;BME280;6516;35.028;32.372;2022-09-28T02:57:35;99837.22;;;19.91;91.36
12897;BME280;6516;35.028;32.372;2022-09-28T03:00:17;99834.44;;;19.92;90.61
12897;BME280;6516;35.028;32.372;2022-09-28T03:02:50;99836.34;;;19.90;90.74
12897;BME280;6516;35.028;32.372;2022-09-28T03:05:31;99840.66;;;19.93;90.55
12897;BME280;6516;35.028;32.372;2022-09-28T03:08:09;99846.94;;;19.92;90.20
12897;BME280;6516;35.028;32.372;2022-09-28T03:10:42;99852.28;;;19.92;90.84
12897;BME280;6516;35.028;32.372;2022-09-28T03:13:13;99851.22;;;19.94;90.58
12897;BME280;6516;35.028;32.372;2022-09-28T03:15:43;99854.69;;;19.96;90.68
12897;BME280;6516;35.028;32.372;2022-09-28T03:18:11;99861.00;;;19.95;90.38
12897;BME280;6516;35.028;32.372;2022-09-28T03:20:39;99862.78;;;19.95;90.42
12897;BME280;6516;35.028;32.372;2022-09-28T03:23:07;99859.16;;;19.96;90.90
12897;BME280;6516;35.028;32.372;2022-09-28T03:25:34;99858.19;;;19.97;90.82
12897;BME280;6516;35.028;32.372;2022-09-28T03:28:02;99864.59;;;19.94;90.76
12897;BME280;6516;35.028;32.372;2022-09-28T03:30:30;99861.91;;;19.94;89.87
12897;BME280;6516;35.028;32.372;2022-09-28T03:32:59;99860.28;;;19.92;90.02
12897;BME280;6516;35.028;32.372;2022-09-28T03:35:27;99862.03;;;19.93;90.65
12897;BME280;6516;35.028;32.372;2022-09-28T03:37:56;99862.03;;;19.93;90.45
12897;BME280;6516;35.028;32.372;2022-09-28T03:40:30;99870.91;;;19.93;90.40
12897;BME280;6516;35.028;32.372;2022-09-28T03:42:59;99873.56;;;19.93;90.85
12897;BME280;6516;35.028;32.372;2022-09-28T03:45:27;99865.38;;;19.96;90.92
12897;BME280;6516;35.028;32.372;2022-09-28T03:47:55;99863.66;;;19.95;90.93
12897;BME280;6516;35.028;32.372;2022-09-28T03:50:24;99871.47;;;19.98;90.92
12897;BME280;6516;35.028;32.372;2022-09-28T03:52:52;99872.25;;;20.00;90.69
12897;BME280;6516;35.028;32.372;2022-09-28T03:55:19;99876.56;;;20.03;91.09
12897;BME280;6516;35.028;32.372;2022-09-28T03:57:52;99871.97;;;20.05;90.90
12897;BME280;6516;35.028;32.372;2022-09-28T04:00:20;99871.78;;;20.08;91.10
12897;BME280;6516;35.028;32.372;2022-09-28T04:02:49;99876.88;;;20.12;90.87
12897;BME280;6516;35.028;32.372;2022-09-28T04:05:16;99877.44;;;20.17;90.62
12897;BME280;6516;35.028;32.372;2022-09-28T04:07:45;99882.44;;;20.23;90.48
12897;BME280;6516;35.028;32.372;2022-09-28T04:10:13;99888.19;;;20.31;90.97
12897;BME280;6516;35.028;32.372;2022-09-28T04:12:41;99890.38;;;20.39;90.93
12897;BME280;6516;35.028;32.372;2022-09-28T04:15:10;99891.63;;;20.47;90.78
12897;BME280;6516;35.028;32.372;2022-09-28T04:17:38;99885.63;;;20.58;90.49
12897;BME280;6516;35.028;32.372;2022-09-28T04:20:06;99884.16;;;20.66;90.15
12897;BME280;6516;35.028;32.372;2022-09-28T04:22:34;99885.41;;;20.75;89.49
12897;BME280;6516;35.028;32.372;2022-09-28T04:25:05;99877.66;;;20.84;89.50
12897;BME280;6516;35.028;32.372;2022-09-28T04:27:33;99879.59;;;20.96;89.30
12897;BME280;6516;35.028;32.372;2022-09-28T04:30:32;99883.09;;;21.11;89.18
12897;BME280;6516;35.028;32.372;2022-09-28T04:33:00;99894.59;;;21.25;88.63
12897;BME280;6516;35.028;32.372;2022-09-28T04:35:28;99900.38;;;21.46;89.04
12897;BME280;6516;35.028;32.372;2022-09-28T04:37:56;99901.34;;;21.71;88.32
12897;BME280;6516;35.028;32.372;2022-09-28T04:40:25;99896.25;;;21.93;86.79
12897;BME280;6516;35.028;32.372;2022-09-28T04:42:53;99895.00;;;22.11;85.36
12897;BME280;6516;35.028;32.372;2022-09-28T04:45:21;99906.41;;;22.27;85.23
12897;BME280;6516;35.028;32.372;2022-09-28T04:47:50;99907.03;;;22.43;84.66
12897;BME280;6516;35.028;32.372;2022-09-28T04:50:18;99908.56;;;22.60;84.15
12897;BME280;6516;35.028;32.372;2022-09-28T04:52:46;99916.41;;;22.75;83.28
12897;BME280;6516;35.028;32.372;2022-09-28T04:55:14;99928.97;;;22.87;82.64
12897;BME280;6516;35.028;32.372;2022-09-28T04:57:45;99927.13;;;23.00;82.47
12897;BME280;6516;35.028;32.372;2022-09-28T05:00:16;99930.63;;;23.13;81.86
12897;BME280;6516;35.028;32.372;2022-09-28T05:02:44;99924.38;;;23.25;81.88
12897;BME280;6516;35.028;32.372;2022-09-28T05:05:12;99918.13;;;23.37;81.26
12897;BME280;6516;35.028;32.372;2022-09-28T05:07:40;99918.94;;;23.50;80.80
12897;BME280;6516;35.028;32.372;2022-09-28T05:10:08;99924.13;;;23.64;79.98
12897;BME280;6516;35.028;32.372;2022-09-28T05:12:35;99912.63;;;23.86;79.34
12897;BME280;6516;35.028;32.372;2022-09-28T05:15:05;99910.53;;;24.13;78.68
12897;BME280;6516;35.028;32.372;2022-09-28T05:17:33;99912.19;;;24.37;76.16
12897;BME280;6516;35.028;32.372;2022-09-28T05:20:01;99907.38;;;24.64;74.92
12897;BME280;6516;35.028;32.372;2022-09-28T05:22:29;99915.47;;;24.86;74.06
12897;BME280;6516;35.028;32.372;2022-09-28T05:24:57;99911.53;;;25.12;72.54
12897;BME280;6516;35.028;32.372;2022-09-28T05:27:25;99902.13;;;25.29;70.76
12897;BME280;6516;35.028;32.372;2022-09-28T05:29:53;99900.31;;;25.50;70.48
12897;BME280;6516;35.028;32.372;2022-09-28T05:32:22;99904.53;;;25.74;69.58
12897;BME280;6516;35.028;32.372;2022-09-28T05:34:50;99912.31;;;25.99;68.76
12897;BME280;6516;35.028;32.372;2022-09-28T05:37:18;99907.28;;;26.26;68.38
12897;BME280;6516;35.028;32.372;2022-09-28T05:39:45;99900.53;;;26.41;67.16
12897;BME280;6516;35.028;32.372;2022-09-28T05:42:13;99893.31;;;26.62;66.00
12897;BME280;6516;35.028;32.372;2022-09-28T05:44:41;99904.41;;;26.89;64.86
12897;BME280;6516;35.028;32.372;2022-09-28T05:47:08;99908.09;;;27.19;63.45
12897;BME280;6516;35.028;32.372;2022-09-28T05:49:38;99905.28;;;27.39;62.55
12897;BME280;6516;35.028;32.372;2022-09-28T05:52:05;99892.38;;;27.71;63.10
12897;BME280;6516;35.028;32.372;2022-09-28T05:54:33;99890.00;;;27.87;61.56
12897;BME280;6516;35.028;32.372;2022-09-28T05:57:01;99892.28;;;27.92;60.12
12897;BME280;6516;35.028;32.372;2022-09-28T05:59:31;99890.28;;;28.13;59.12
12897;BME280;6516;35.028;32.372;2022-09-28T06:02:00;99890.81;;;28.35;58.21
12897;BME280;6516;35.028;32.372;2022-09-28T06:04:29;99891.38;;;28.39;58.64
12897;BME280;6516;35.028;32.372;2022-09-28T06:06:58;99889.56;;;28.20;58.79
12897;BME280;6516;35.028;32.372;2022-09-28T06:09:26;99895.09;;;28.28;58.66
12897;BME280;6516;35.028;32.372;2022-09-28T06:11:54;99893.41;;;28.18;58.03
12897;BME280;6516;35.028;32.372;2022-09-28T06:14:21;99883.28;;;28.01;59.23
12897;BME280;6516;35.028;32.372;2022-09-28T06:16:49;99877.44;;;28.15;58.73
12897;BME280;6516;35.028;32.372;2022-09-28T06:19:17;99881.97;;;28.33;58.92
12897;BME280;6516;35.028;32.372;2022-09-28T06:21:46;99891.97;;;28.14;56.59
12897;BME280;6516;35.028;32.372;2022-09-28T06:24:15;99899.69;;;27.90;58.25
12897;BME280;6516;35.028;32.372;2022-09-28T06:26:43;99903.22;;;27.62;58.94
12897;BME280;6516;35.028;32.372;2022-09-28T06:29:11;99905.91;;;27.71;60.07
12897;BME280;6516;35.028;32.372;2022-09-28T06:31:44;99906.75;;;27.53;58.86
12897;BME280;6516;35.028;32.372;2022-09-28T06:34:11;99900.63;;;27.51;60.05
12897;BME280;6516;35.028;32.372;2022-09-28T06:36:39;99898.22;;;27.67;59.46
12897;BME280;6516;35.028;32.372;2022-09-28T06:39:07;99899.69;;;27.99;58.76
12897;BME280;6516;35.028;32.372;2022-09-28T06:41:36;99901.25;;;28.21;57.57
12897;BME280;6516;35.028;32.372;2022-09-28T06:44:04;99900.03;;;28.71;56.82
12897;BME280;6516;35.028;32.372;2022-09-28T06:46:32;99892.06;;;29.06;55.23
12897;BME280;6516;35.028;32.372;2022-09-28T06:49:02;99894.28;;;29.20;53.44
12897;BME280;6516;35.028;32.372;2022-09-28T06:51:31;99901.34;;;29.30;53.13
12897;BME280;6516;35.028;32.372;2022-09-28T06:53:59;99897.72;;;29.39;53.55
12897;BME280;6516;35.028;32.372;2022-09-28T06:56:26;99890.84;;;29.45;52.90
12897;BME280;6516;35.028;32.372;2022-09-28T06:58:55;99900.66;;;29.28;52.96
12897;BME280;6516;35.028;32.372;2022-09-28T07:01:23;99897.94;;;29.28;53.84
12897;BME280;6516;35.028;32.372;2022-09-28T07:03:51;99896.75;;;29.40;53.02
12897;BME280;6516;35.028;32.372;2022-09-28T07:06:19;99902.84;;;29.69;52.51
12897;BME280;6516;35.028;32.372;2022-09-28T07:08:48;99906.97;;;29.91;53.09
12897;BME280;6516;35.028;32.372;2022-09-28T07:11:16;99912.78;;;30.31;52.48
12897;BME280;6516;35.028;32.372;2022-09-28T07:13:45;99917.13;;;30.67;50.09
12897;BME280;6516;35.028;32.372;2022-09-28T07:16:15;99918.00;;;30.93;47.53
12897;BME280;6516;35.028;32.372;2022-09-28T07:18:42;99907.91;;;31.19;47.18
12897;BME280;6516;35.028;32.372;2022-09-28T07:21:10;99908.25;;;31.16;46.52
12897;BME280;6516;35.028;32.372;2022-09-28T07:23:38;99921.44;;;31.28;45.51
12897;BME280;6516;35.028;32.372;2022-09-28T07:26:06;99909.44;;;31.47;45.52
12897;BME280;6516;35.028;32.372;2022-09-28T07:28:34;99911.09;;;31.40;47.09
12897;BME280;6516;35.028;32.372;2022-09-28T07:31:05;99911.09;;;31.40;46.28
12897;BME280;6516;35.028;32.372;2022-09-28T07:33:35;99912.50;;;31.60;45.61
12897;BME280;6516;35.028;32.372;2022-09-28T07:36:03;99915.91;;;31.54;45.51
12897;BME280;6516;35.028;32.372;2022-09-28T07:38:32;99915.00;;;31.37;45.71
12897;BME280;6516;35.028;32.372;2022-09-28T07:41:00;99914.03;;;31.46;46.09
12897;BME280;6516;35.028;32.372;2022-09-28T07:43:41;99916.00;;;31.78;45.18
12897;BME280;6516;35.028;32.372;2022-09-28T07:46:09;99904.81;;;31.97;44.83
12897;BME280;6516;35.028;32.372;2022-09-28T07:48:41;99915.00;;;31.87;45.55
12897;BME280;6516;35.028;32.372;2022-09-28T07:51:10;99913.47;;;31.92;45.26
12897;BME280;6516;35.028;32.372;2022-09-28T07:53:38;99916.59;;;32.21;44.82
12897;BME280;6516;35.028;32.372;2022-09-28T07:56:06;99907.72;;;32.19;44.31
12897;BME280;6516;35.028;32.372;2022-09-28T07:58:35;99913.88;;;32.29;44.36
12897;BME280;6516;35.028;32.372;2022-09-28T08:01:06;99910.97;;;32.47;43.93
12897;BME280;6516;35.028;32.372;2022-09-28T08:03:35;99912.50;;;32.49;43.48
12897;BME280;6516;35.028;32.372;2022-09-28T08:06:06;99903.78;;;32.54;43.84
12897;BME280;6516;35.028;32.372;2022-09-28T08:08:37;99908.91;;;32.49;44.27
12897;BME280;6516;35.028;32.372;2022-09-28T08:11:09;99919.50;;;32.44;44.03
12897;BME280;6516;35.028;32.372;2022-09-28T08:13:37;99919.81;;;32.57;43.96
12897;BME280;6516;35.028;32.372;2022-09-28T08:16:05;99917.78;;;32.19;45.24
12897;BME280;6516;35.028;32.372;2022-09-28T08:18:33;99908.25;;;32.31;44.88
12897;BME280;6516;35.028;32.372;2022-09-28T08:21:06;99915.72;;;32.45;44.45
12897;BME280;6516;35.028;32.372;2022-09-28T08:23:51;99910.28;;;32.37;44.91
12897;BME280;6516;35.028;32.372;2022-09-28T08:26:19;99906.16;;;32.17;45.15
12897;BME280;6516;35.028;32.372;2022-09-28T08:28:46;99912.31;;;32.19;44.68
12897;BME280;6516;35.028;32.372;2022-09-28T08:31:14;99918.78;;;32.18;44.54
12897;BME280;6516;35.028;32.372;2022-09-28T08:33:42;99916.94;;;32.58;43.42
12897;BME280;6516;35.028;32.372;2022-09-28T08:36:11;99919.97;;;32.63;43.89
12897;BME280;6516;35.028;32.372;2022-09-28T08:38:39;99908.72;;;32.66;43.08
12897;BME280;6516;35.028;32.372;2022-09-28T08:41:17;99910.94;;;32.71;42.73
12897;BME280;6516;35.028;32.372;2022-09-28T08:44:11;99909.91;;;32.72;42.81
12897;BME280;6516;35.028;32.372;2022-09-28T08:46:49;99898.81;;;32.73;43.00
12897;BME280;6516;35.028;32.372;2022-09-28T08:49:25;99899.03;;;32.56;43.80
12897;BME280;6516;35.028;32.372;2022-09-28T08:51:59;99904.78;;;32.77;42.71
12897;BME280;6516;35.028;32.372;2022-09-28T08:54:35;99905.16;;;32.58;43.89
12897;BME280;6516;35.028;32.372;2022-09-28T08:57:10;99905.31;;;32.56;44.46
12897;BME280;6516;35.028;32.372;2022-09-28T08:59:45;99911.16;;;32.53;44.57
12897;BME280;6516;35.028;32.372;2022-09-28T09:02:20;99905.47;;;32.71;43.18
12897;BME280;6516;35.028;32.372;2022-09-28T09:04:50;99906.13;;;32.97;42.37
12897;BME280;6516;35.028;32.372;2022-09-28T09:07:36;99894.66;;;33.09;42.35
12897;BME280;6516;35.028;32.372;2022-09-28T09:10:31;99892.78;;;33.10;43.33
12897;BME280;6516;35.028;32.372;2022-09-28T09:16:18;99898.88;;;32.49;44.72
12897;BME280;6516;35.028;32.372;2022-09-28T09:19:02;99895.44;;;32.47;44.60
12897;BME280;6516;35.028;32.372;2022-09-28T09:21:41;99892.56;;;32.49;43.94
12897;BME280;6516;35.028;32.372;2022-09-28T09:24:26;99893.59;;;32.48;44.43
12897;BME280;6516;35.028;32.372;2022-09-28T09:27:07;99892.00;;;32.61;43.91
12897;BME280;6516;35.028;32.372;2022-09-28T09:29:55;99896.09;;;32.89;43.42
12897;BME280;6516;35.028;32.372;2022-09-28T09:32:53;99899.31;;;32.93;43.33
12897;BME280;6516;35.028;32.372;2022-09-28T09:35:53;99903.41;;;32.97;43.75
12897;BME280;6516;35.028;32.372;2022-09-28T09:38:50;99888.03;;;32.96;42.58
12897;BME280;6516;35.028;32.372;2022-09-28T09:41:39;99893.53;;;33.34;41.70
12897;BME280;6516;35.028;32.372;2022-09-28T09:47:24;99904.09;;;33.45;41.66
12897;BME280;6516;35.028;32.372;2022-09-28T09:50:00;99906.63;;;33.47;41.44
12897;BME280;6516;35.028;32.372;2022-09-28T09:52:33;99899.03;;;33.65;41.93
12897;BME280;6516;35.028;32.372;2022-09-28T09:55:15;99905.47;;;33.41;42.44
12897;BME280;6516;35.028;32.372;2022-09-28T09:57:49;99891.19;;;33.62;42.16
12897;BME280;6516;35.028;32.372;2022-09-28T10:00:19;99901.84;;;33.49;42.50
12897;BME280;6516;35.028;32.372;2022-09-28T10:02:48;99900.47;;;33.45;42.95
12897;BME280;6516;35.028;32.372;2022-09-28T10:05:21;99888.38;;;33.01;43.22
12897;BME280;6516;35.028;32.372;2022-09-28T10:07:54;99898.69;;;32.83;44.03
12897;BME280;6516;35.028;32.372;2022-09-28T10:10:32;99894.91;;;32.84;44.24
12897;BME280;6516;35.028;32.372;2022-09-28T10:13:02;99893.38;;;32.73;44.29
12897;BME280;6516;35.028;32.372;2022-09-28T10:15:32;99894.50;;;33.03;44.01
12897;BME280;6516;35.028;32.372;2022-09-28T10:18:05;99895.59;;;32.70;44.68
12897;BME280;6516;35.028;32.372;2022-09-28T10:20:37;99891.19;;;32.61;44.80
12897;BME280;6516;35.028;32.372;2022-09-28T10:23:19;99895.09;;;32.82;44.16
12897;BME280;6516;35.028;32.372;2022-09-28T10:25:52;99892.00;;;32.77;44.66
12897;BME280;6516;35.028;32.372;2022-09-28T10:28:34;99887.84;;;33.05;44.51
12897;BME280;6516;35.028;32.372;2022-09-28T10:31:34;99887.06;;;32.89;44.65
12897;BME280;6516;35.028;32.372;2022-09-28T10:34:03;99880.22;;;32.77;44.57
12897;BME280;6516;35.028;32.372;2022-09-28T10:36:41;99886.03;;;32.74;44.12
12897;BME280;6516;35.028;32.372;2022-09-28T10:39:24;99878.59;;;32.60;46.30
12897;BME280;6516;35.028;32.372;2022-09-28T10:41:55;99884.00;;;32.84;45.64
12897;BME280;6516;35.028;32.372;2022-09-28T10:44:26;99884.00;;;32.68;44.10
12897;BME280;6516;35.028;32.372;2022-09-28T10:46:58;99885.75;;;32.37;44.12
12897;BME280;6516;35.028;32.372;2022-09-28T10:49:28;99890.03;;;32.39;44.05
12897;BME280;6516;35.028;32.372;2022-09-28T10:51:58;99893.75;;;32.38;44.77
12897;BME280;6516;35.028;32.372;2022-09-28T10:54:29;99883.88;;;32.13;45.87
12897;BME280;6516;35.028;32.372;2022-09-28T10:56:58;99901.06;;;32.14;46.59
12897;BME280;6516;35.028;32.372;2022-09-28T10:59:45;99892.75;;;32.31;45.30
12897;BME280;6516;35.028;32.372;2022-09-28T11:02:20;99891.19;;;32.21;45.34
12897;BME280;6516;35.028;32.372;2022-09-28T11:04:51;99899.19;;;32.22;46.07
12897;BME280;6516;35.028;32.372;2022-09-28T11:07:22;99902.91;;;32.69;45.52
12897;BME280;6516;35.028;32.372;2022-09-28T11:09:53;99890.97;;;32.78;44.55
12897;BME280;6516;35.028;32.372;2022-09-28T11:12:24;99894.56;;;32.63;44.70
12897;BME280;6516;35.028;32.372;2022-09-28T11:15:00;99886.03;;;32.82;44.38
12897;BME280;6516;35.028;32.372;2022-09-28T11:17:31;99893.03;;;32.76;43.90
12897;BME280;6516;35.028;32.372;2022-09-28T11:20:31;99898.16;;;32.79;44.38
12897;BME280;6516;35.028;32.372;2022-09-28T11:23:17;99892.50;;;32.73;44.82
12897;BME280;6516;35.028;32.372;2022-09-28T11:25:58;99888.47;;;32.61;44.35
12897;BME280;6516;35.028;32.372;2022-09-28T11:28:30;99897.00;;;32.42;45.43
12897;BME280;6516;35.028;32.372;2022-09-28T11:31:01;99892.22;;;32.52;45.19
12897;BME280;6516;35.028;32.372;2022-09-28T11:33:32;99889.84;;;32.01;45.71
12897;BME280;6516;35.028;32.372;2022-09-28T11:39:07;99869.53;;;32.51;43.75
12897;BME280;6516;35.028;32.372;2022-09-28T11:41:52;99871.72;;;32.64;43.59
12897;BME280;6516;35.028;32.372;2022-09-28T11:44:38;99872.28;;;32.51;44.29
12897;BME280;6516;35.028;32.372;2022-09-28T11:47:24;99876.91;;;32.35;44.22
12897;BME280;6516;35.028;32.372;2022-09-28T11:50:05;99875.53;;;32.47;44.08
12897;BME280;6516;35.028;32.372;2022-09-28T11:52:49;99873.47;;;32.17;44.05
12897;BME280;6516;35.028;32.372;2022-09-28T11:55:28;99878.94;;;32.25;40.67
12897;BME280;6516;35.028;32.372;2022-09-28T11:58:04;99873.13;;;32.28;42.35
12897;BME280;6516;35.028;32.372;2022-09-28T12:00:41;99867.31;;;32.23;44.53
12897;BME280;6516;35.028;32.372;2022-09-28T12:03:15;99870.75;;;32.41;43.91
12897;BME280;6516;35.028;32.372;2022-09-28T12:05:48;99869.22;;;32.22;44.71
12897;BME280;6516;35.028;32.372;2022-09-28T12:08:20;99873.13;;;32.20;45.75
12897;BME280;6516;35.028;32.372;2022-09-28T12:10:56;99867.69;;;32.28;45.45
12897;BME280;6516;35.028;32.372;2022-09-28T12:13:27;99872.31;;;32.35;44.33
12897;BME280;6516;35.028;32.372;2022-09-28T12:16:00;99868.69;;;31.87;44.95
12897;BME280;6516;35.028;32.372;2022-09-28T12:18:36;99863.06;;;31.96;44.17
12897;BME280;6516;35.028;32.372;2022-09-28T12:21:20;99864.44;;;31.92;43.55
12897;BME280;6516;35.028;32.372;2022-09-28T12:24:02;99856.09;;;31.94;43.35
12897;BME280;6516;35.028;32.372;2022-09-28T12:26:41;99857.97;;;32.09;41.98
12897;BME280;6516;35.028;32.372;2022-09-28T12:29:14;99855.09;;;32.19;43.87
12897;BME280;6516;35.028;32.372;2022-09-28T12:31:58;99853.38;;;31.94;43.98
12897;BME280;6516;35.028;32.372;2022-09-28T12:34:32;99842.06;;;31.73;45.35
12897;BME280;6516;35.028;32.372;2022-09-28T12:37:23;99840.00;;;31.51;45.24
12897;BME280;6516;35.028;32.372;2022-09-28T12:43:15;99837.94;;;31.29;46.21
12897;BME280;6516;35.028;32.372;2022-09-28T12:46:18;99839.31;;;31.49;45.35
12897;BME280;6516;35.028;32.372;2022-09-28T12:51:55;99838.34;;;31.16;44.65
12897;BME280;6516;35.028;32.372;2022-09-28T12:57:52;99823.00;;;31.07;46.63
12897;BME280;6516;35.028;32.372;2022-09-28T13:00:25;99825.88;;;30.64;46.15
12897;BME280;6516;35.028;32.372;2022-09-28T13:03:08;99818.72;;;30.63;46.46
12897;BME280;6516;35.028;32.372;2022-09-28T13:06:34;99818.19;;;30.85;46.08
12897;BME280;6516;35.028;32.372;2022-09-28T13:09:18;99810.03;;;30.60;48.28
12897;BME280;6516;35.028;32.372;2022-09-28T13:11:56;99810.31;;;30.74;48.35
12897;BME280;6516;35.028;32.372;2022-09-28T13:14:53;99798.53;;;30.66;46.33
12897;BME280;6516;35.028;32.372;2022-09-28T13:17:57;99807.91;;;30.71;46.77
12897;BME280;6516;35.028;32.372;2022-09-28T13:20:41;99801.19;;;30.58;46.84
12897;BME280;6516;35.028;32.372;2022-09-28T13:23:18;99813.41;;;30.54;47.27
12897;BME280;6516;35.028;32.372;2022-09-28T13:25:53;99803.72;;;30.51;47.02
12897;BME280;6516;35.028;32.372;2022-09-28T13:28:25;99802.00;;;30.50;46.38
12897;BME280;6516;35.028;32.372;2022-09-28T13:30:55;99803.41;;;30.29;46.16
12897;BME280;6516;35.028;32.372;2022-09-28T13:33:28;99803.16;;;30.14;45.65
12897;BME280;6516;35.028;32.372;2022-09-28T13:36:02;99807.72;;;30.14;46.28
12897;BME280;6516;35.028;32.372;2022-09-28T13:38:46;99800.13;;;30.17;46.58
12897;BME280;6516;35.028;32.372;2022-09-28T13:41:27;99812.94;;;29.90;47.83
12897;BME280;6516;35.028;32.372;2022-09-28T13:44:17;99811.91;;;29.91;48.23
12897;BME280;6516;35.028;32.372;2022-09-28T13:47:12;99812.25;;;29.88;48.15
12897;BME280;6516;35.028;32.372;2022-09-28T13:49:58;99819.06;;;29.74;48.90
12897;BME280;6516;35.028;32.372;2022-09-28T13:52:39;99811.94;;;29.56;50.97
12897;BME280;6516;35.028;32.372;2022-09-28T13:55:33;99809.06;;;29.40;51.56